createdAt,value
2023-01-17T00:02:23.488Z,70.58
2023-01-17T00:05:10.337Z,70.79
2023-01-17T00:07:56.653Z,70.74
2023-01-17T00:10:27.455Z,70.82
2023-01-17T00:13:03.498Z,70.86
2023-01-17T00:15:32.272Z,70.55
2023-01-17T00:18:00.310Z,70.30
2023-01-17T00:20:49.282Z,70.36
2023-01-17T00:23:40.079Z,70.49
2023-01-17T00:26:18.391Z,70.50
2023-01-17T00:28:46.760Z,70.65
2023-01-17T00:31:16.566Z,70.74
2023-01-17T00:33:44.618Z,70.75
2023-01-17T00:36:13.124Z,70.56
2023-01-17T00:38:42.337Z,70.48
2023-01-17T00:41:14.929Z,70.38
2023-01-17T00:44:01.528Z,70.32
2023-01-17T00:46:47.869Z,70.20
2023-01-17T00:49:34.797Z,70.23
2023-01-17T00:52:21.348Z,70.09
2023-01-17T00:55:08.145Z,70.26
2023-01-17T00:57:54.625Z,70.28
2023-01-17T01:00:41.222Z,70.12
2023-01-17T01:03:29.805Z,70.30
2023-01-17T01:06:16.287Z,70.40
2023-01-17T01:09:03.188Z,70.49
2023-01-17T01:11:50.040Z,70.49
2023-01-17T01:14:36.773Z,70.44
2023-01-17T01:17:23.305Z,70.41
2023-01-17T01:20:09.849Z,70.26
2023-01-17T01:22:56.217Z,70.04
2023-01-17T01:25:43.506Z,69.56
2023-01-17T01:28:32.578Z,69.14
2023-01-17T01:31:20.110Z,69.25
2023-01-17T01:33:48.180Z,69.04
2023-01-17T01:36:16.120Z,69.16
2023-01-17T01:38:44.297Z,69.25
2023-01-17T01:41:12.554Z,69.30
2023-01-17T01:43:40.426Z,69.43
2023-01-17T01:46:13.180Z,69.28
2023-01-17T01:48:50.573Z,69.32
2023-01-17T01:51:26.529Z,69.39
2023-01-17T01:54:00.031Z,69.35
2023-01-17T01:56:29.878Z,69.65
2023-01-17T01:59:00.170Z,69.50
2023-01-17T02:01:30.581Z,69.63
2023-01-17T02:03:58.824Z,69.97
2023-01-17T02:06:29.505Z,69.58
2023-01-17T02:09:01.773Z,69.80
2023-01-17T02:11:30.756Z,69.67
2023-01-17T02:13:58.757Z,69.65
2023-01-17T02:16:26.647Z,69.44
2023-01-17T02:19:32.105Z,69.43
2023-01-17T02:22:45.207Z,69.57
2023-01-17T02:25:50.921Z,69.55
2023-01-17T02:28:28.862Z,69.63
2023-01-17T02:31:09.701Z,69.67
2023-01-17T02:34:06.582Z,69.63
2023-01-17T02:36:46.703Z,69.64
2023-01-17T02:39:49.827Z,69.73
2023-01-17T02:42:26.448Z,69.77
2023-01-17T02:44:54.684Z,69.83
2023-01-17T02:47:28.861Z,69.90
2023-01-17T02:50:10.592Z,69.93
2023-01-17T02:52:47.412Z,69.92
2023-01-17T02:55:30.573Z,69.68
2023-01-17T02:58:13.277Z,69.84
2023-01-17T03:01:05.817Z,69.94
2023-01-17T03:03:50.636Z,70.06
2023-01-17T03:06:29.642Z,70.20
2023-01-17T03:08:57.725Z,70.23
2023-01-17T03:11:27.320Z,70.23
2023-01-17T03:13:57.030Z,70.16
2023-01-17T03:16:27.703Z,70.05
2023-01-17T03:18:55.835Z,70.09
2023-01-17T03:21:24.861Z,70.20
2023-01-17T03:23:53.002Z,70.27
2023-01-17T03:26:20.867Z,70.25
2023-01-17T03:28:48.940Z,70.39
2023-01-17T03:31:18.034Z,70.31
2023-01-17T03:33:46.358Z,70.17
2023-01-17T03:36:14.337Z,70.29
2023-01-17T03:38:42.394Z,70.42
2023-01-17T03:41:10.289Z,70.59
2023-01-17T03:43:38.916Z,70.85
2023-01-17T03:46:18.046Z,70.97
2023-01-17T03:48:45.926Z,71.88
2023-01-17T03:51:14.217Z,72.79
2023-01-17T03:53:42.879Z,73.85
2023-01-17T03:56:10.850Z,74.20
2023-01-17T03:58:39.012Z,74.31
2023-01-17T04:01:07.237Z,73.53
2023-01-17T04:03:35.600Z,73.08
2023-01-17T04:06:04.156Z,73.34
2023-01-17T04:08:32.220Z,72.96
2023-01-17T04:11:00.394Z,72.74
2023-01-17T04:13:28.373Z,72.47
2023-01-17T04:15:56.419Z,72.37
2023-01-17T04:18:25.123Z,72.28
2023-01-17T04:20:53.095Z,72.08
2023-01-17T04:23:21.271Z,72.01
2023-01-17T04:25:49.346Z,71.96
2023-01-17T04:28:17.222Z,71.85
2023-01-17T04:30:45.198Z,71.91
2023-01-17T04:33:13.325Z,71.95
2023-01-17T04:35:41.253Z,71.93
2023-01-17T04:38:09.206Z,71.89
2023-01-17T04:40:37.480Z,71.83
2023-01-17T04:43:05.483Z,71.93
2023-01-17T04:45:33.304Z,71.86
2023-01-17T04:48:08.403Z,71.96
2023-01-17T04:50:36.558Z,71.66
2023-01-17T04:53:04.580Z,71.51
2023-01-17T04:55:32.670Z,71.47
2023-01-17T04:58:00.825Z,71.23
2023-01-17T05:00:28.752Z,70.80
2023-01-17T05:02:56.981Z,70.59
2023-01-17T05:05:25.044Z,70.29
2023-01-17T05:07:55.163Z,70.29
2023-01-17T05:10:23.405Z,69.80
2023-01-17T05:12:59.284Z,69.71
2023-01-17T05:15:27.802Z,69.75
2023-01-17T05:17:56.587Z,69.83
2023-01-17T05:20:27.195Z,69.75
2023-01-17T05:22:57.153Z,69.40
2023-01-17T05:25:27.541Z,69.43
2023-01-17T05:27:55.723Z,69.34
2023-01-17T05:30:24.588Z,69.35
2023-01-17T05:32:54.307Z,69.44
2023-01-17T05:35:25.966Z,69.59
2023-01-17T05:37:54.450Z,69.92
2023-01-17T05:40:28.467Z,70.13
2023-01-17T05:42:58.386Z,70.08
2023-01-17T05:45:35.023Z,70.15
2023-01-17T05:48:06.777Z,70.63
2023-01-17T05:50:37.041Z,70.82
2023-01-17T05:53:07.984Z,71.15
2023-01-17T05:55:37.456Z,71.31
2023-01-17T05:58:06.830Z,71.56
2023-01-17T06:00:35.409Z,71.81
2023-01-17T06:03:03.652Z,71.99
2023-01-17T06:05:32.116Z,72.24
2023-01-17T06:08:00.510Z,72.09
2023-01-17T06:10:29.523Z,71.98
2023-01-17T06:13:05.978Z,72.32
2023-01-17T06:15:35.975Z,72.42
2023-01-17T06:18:09.554Z,72.65
2023-01-17T06:20:38.119Z,72.58
2023-01-17T06:23:08.332Z,72.72
2023-01-17T06:25:38.812Z,72.43
2023-01-17T06:28:07.815Z,72.37
2023-01-17T06:30:36.527Z,72.25
2023-01-17T06:33:05.501Z,72.14
2023-01-17T06:35:33.873Z,72.11
2023-01-17T06:38:01.839Z,72.00
2023-01-17T06:40:30.727Z,72.01
2023-01-17T06:43:03.267Z,71.90
2023-01-17T06:45:33.741Z,71.94
2023-01-17T06:48:04.155Z,72.27
2023-01-17T06:50:33.084Z,72.26
2023-01-17T06:53:03.855Z,72.21
2023-01-17T06:55:34.041Z,72.24
2023-01-17T06:58:03.056Z,72.20
2023-01-17T07:00:31.924Z,72.25
2023-01-17T07:03:00.166Z,71.99
2023-01-17T07:05:28.615Z,72.03
2023-01-17T07:07:57.811Z,72.13
2023-01-17T07:10:25.976Z,72.04
2023-01-17T07:12:59.810Z,72.13
2023-01-17T07:15:28.520Z,72.29
2023-01-17T07:17:56.400Z,72.70
2023-01-17T07:20:24.350Z,72.91
2023-01-17T07:22:52.321Z,73.10
2023-01-17T07:25:20.389Z,73.16
2023-01-17T07:27:48.679Z,73.51
2023-01-17T07:30:16.910Z,73.38
2023-01-17T07:32:44.743Z,73.71
2023-01-17T07:35:12.613Z,73.55
2023-01-17T07:37:40.526Z,73.32
2023-01-17T07:40:09.867Z,73.26
2023-01-17T07:42:40.887Z,73.07
2023-01-17T07:45:10.193Z,72.89
2023-01-17T07:47:38.320Z,72.78
2023-01-17T07:50:08.061Z,72.52
2023-01-17T07:52:35.911Z,72.41
2023-01-17T07:55:05.077Z,72.32
2023-01-17T07:57:33.270Z,72.10
2023-01-17T08:00:01.260Z,71.78
2023-01-17T08:02:29.208Z,71.66
2023-01-17T08:04:57.280Z,71.39
2023-01-17T08:07:25.454Z,71.22
2023-01-17T08:09:54.834Z,70.92
2023-01-17T08:12:22.714Z,70.86
2023-01-17T08:14:50.663Z,70.90
2023-01-17T08:17:20.535Z,70.80
2023-01-17T08:19:52.255Z,70.30
2023-01-17T08:22:20.335Z,70.21
2023-01-17T08:24:48.653Z,70.07
2023-01-17T08:27:16.588Z,69.23
2023-01-17T08:29:47.233Z,68.95
2023-01-17T08:32:16.311Z,68.04
2023-01-17T08:34:44.623Z,67.53
2023-01-17T08:37:12.889Z,67.48
2023-01-17T08:39:40.942Z,67.35
2023-01-17T08:42:09.421Z,66.42
2023-01-17T08:44:38.720Z,65.19
2023-01-17T08:47:06.790Z,64.82
2023-01-17T08:49:35.581Z,63.96
2023-01-17T08:52:05.261Z,64.13
2023-01-17T08:54:33.174Z,63.78
2023-01-17T08:57:03.351Z,63.58
2023-01-17T08:59:31.226Z,63.99
2023-01-17T09:02:01.595Z,64.03
2023-01-17T09:04:29.661Z,64.17
2023-01-17T09:06:57.580Z,63.60
2023-01-17T09:09:25.562Z,62.95
2023-01-17T09:11:53.551Z,61.63
2023-01-17T09:14:21.476Z,60.53
2023-01-17T09:16:49.470Z,60.21
2023-01-17T09:19:17.617Z,60.29
2023-01-17T09:21:45.462Z,60.57
2023-01-17T09:24:15.516Z,60.46
2023-01-17T09:26:44.668Z,59.81
2023-01-17T09:29:17.813Z,57.57
2023-01-17T09:31:47.225Z,56.81
2023-01-17T09:34:15.479Z,56.39
2023-01-17T09:36:43.393Z,57.24
2023-01-17T09:39:15.365Z,57.25
2023-01-17T09:41:52.721Z,56.86
2023-01-17T09:44:24.415Z,57.57
2023-01-17T09:46:56.762Z,58.39
2023-01-17T09:49:28.831Z,58.07
2023-01-17T09:51:57.351Z,58.36
2023-01-17T09:54:49.305Z,58.67
2023-01-17T09:57:40.560Z,59.43
2023-01-17T10:00:40.993Z,59.62
2023-01-17T10:03:33.593Z,59.46
2023-01-17T10:06:09.551Z,59.53
2023-01-17T10:08:56.927Z,59.99
2023-01-17T10:11:42.500Z,60.12
2023-01-17T10:14:51.843Z,59.60
2023-01-17T10:17:47.681Z,59.67
2023-01-17T10:20:34.278Z,59.19
2023-01-17T10:23:27.231Z,55.47
2023-01-17T10:26:01.305Z,51.58
2023-01-17T10:28:35.452Z,47.31
2023-01-17T10:31:12.464Z,45.20
2023-01-17T10:33:57.801Z,44.02
2023-01-17T10:36:30.154Z,43.65
2023-01-17T10:39:13.222Z,42.26
2023-01-17T10:41:50.448Z,40.93
2023-01-17T10:44:27.784Z,40.86
2023-01-17T10:47:08.232Z,41.92
2023-01-17T10:49:40.037Z,41.87
2023-01-17T10:52:29.338Z,40.97
2023-01-17T10:55:17.209Z,41.69
2023-01-17T10:57:48.114Z,41.00
2023-01-17T11:01:00.728Z,41.93
2023-01-17T11:03:29.363Z,40.45
2023-01-17T11:06:22.359Z,41.48
2023-01-17T11:09:02.158Z,42.13
2023-01-17T11:11:33.716Z,41.94
2023-01-17T11:14:15.395Z,42.55
2023-01-17T11:16:43.495Z,43.15
2023-01-17T11:19:28.696Z,41.69
2023-01-17T11:22:02.877Z,43.12
2023-01-17T11:24:42.356Z,43.99
2023-01-17T11:27:32.697Z,43.83
2023-01-17T11:30:15.901Z,44.40
2023-01-17T11:32:53.104Z,44.63
2023-01-17T11:35:21.289Z,44.56
2023-01-17T11:38:02.367Z,45.52
2023-01-17T11:40:42.509Z,45.96
2023-01-17T11:43:14.493Z,46.10
2023-01-17T11:45:42.443Z,46.21
2023-01-17T11:48:11.917Z,46.47
2023-01-17T11:50:55.361Z,46.34
2023-01-17T11:53:34.514Z,45.58
2023-01-17T11:56:03.074Z,44.49
2023-01-17T11:58:33.832Z,46.06
2023-01-17T12:01:23.560Z,45.15
2023-01-17T12:04:11.653Z,41.85
2023-01-17T12:07:03.065Z,42.44
2023-01-17T12:09:30.876Z,39.29
2023-01-17T12:12:32.913Z,39.80
2023-01-17T12:15:25.745Z,38.84
2023-01-17T12:17:59.590Z,37.11
2023-01-17T12:20:30.608Z,37.51
2023-01-17T12:23:17.127Z,36.72
2023-01-17T12:25:49.603Z,37.06
2023-01-17T12:28:52.075Z,33.53
2023-01-17T12:31:57.106Z,33.65
2023-01-17T12:34:31.834Z,31.25
2023-01-17T12:37:12.096Z,30.70
2023-01-17T12:39:45.586Z,32.44
2023-01-17T12:42:22.289Z,31.79
2023-01-17T12:45:10.198Z,29.63
2023-01-17T12:47:45.444Z,29.46
2023-01-17T12:50:28.567Z,28.69
2023-01-17T12:53:07.022Z,28.78
2023-01-17T12:55:50.219Z,27.27
2023-01-17T12:58:25.065Z,27.25
2023-01-17T13:01:05.514Z,27.29
2023-01-17T13:04:11.663Z,27.46
2023-01-17T13:07:04.413Z,25.94
2023-01-17T13:09:43.341Z,26.25
2023-01-17T13:12:18.996Z,25.13
2023-01-17T13:14:47.494Z,25.12
2023-01-17T13:17:38.677Z,26.35
2023-01-17T13:20:38.296Z,27.29
2023-01-17T13:23:30.976Z,25.76
2023-01-17T13:26:00.672Z,25.83
2023-01-17T13:28:43.579Z,26.80
2023-01-17T13:31:48.350Z,25.59
2023-01-17T13:34:29.607Z,24.97
2023-01-17T13:37:04.747Z,24.93
2023-01-17T13:40:17.955Z,24.89
2023-01-17T13:42:56.573Z,26.72
2023-01-17T13:45:26.667Z,27.03
2023-01-17T13:48:12.753Z,27.63
2023-01-17T13:50:40.977Z,27.69
2023-01-17T13:53:27.380Z,28.25
2023-01-17T13:56:21.756Z,29.44
2023-01-17T13:58:57.942Z,30.90
2023-01-17T14:01:26.247Z,32.06
2023-01-17T14:03:54.272Z,33.11
2023-01-17T14:06:30.571Z,33.66
2023-01-17T14:09:07.609Z,34.61
2023-01-17T14:11:37.314Z,35.62
2023-01-17T14:14:43.734Z,36.98
2023-01-17T14:17:25.894Z,37.87
2023-01-17T14:19:57.522Z,38.76
2023-01-17T14:22:28.185Z,41.88
2023-01-17T14:25:01.022Z,42.96
2023-01-17T14:27:38.596Z,43.33
2023-01-17T14:30:18.701Z,43.79
2023-01-17T14:32:58.880Z,44.05
2023-01-17T14:35:40.981Z,44.57
2023-01-17T14:38:29.857Z,45.10
2023-01-17T14:41:07.960Z,45.62
2023-01-17T14:43:41.022Z,46.98
2023-01-17T14:46:18.654Z,46.63
2023-01-17T14:48:47.927Z,48.57
2023-01-17T14:51:24.903Z,49.11
2023-01-17T14:54:02.296Z,50.69
2023-01-17T14:56:31.500Z,51.19
2023-01-17T14:59:05.836Z,51.48
2023-01-17T15:01:36.228Z,54.06
2023-01-17T15:04:04.389Z,55.97
2023-01-17T15:06:41.711Z,55.24
2023-01-17T15:09:18.795Z,57.64
2023-01-17T15:11:48.837Z,57.14
2023-01-17T15:14:32.444Z,58.04
2023-01-17T15:17:17.305Z,60.04
2023-01-17T15:19:49.267Z,58.38
2023-01-17T15:22:19.183Z,60.01
2023-01-17T15:24:49.234Z,59.90
2023-01-17T15:27:17.516Z,59.25
2023-01-17T15:29:46.676Z,61.10
2023-01-17T15:32:23.047Z,60.03
2023-01-17T15:34:52.436Z,59.66
2023-01-17T15:37:28.473Z,59.35
2023-01-17T15:40:19.836Z,60.34
2023-01-17T15:42:52.974Z,60.66
2023-01-17T15:45:28.538Z,61.55
2023-01-17T15:47:57.585Z,61.81
2023-01-17T15:50:28.020Z,60.70
2023-01-17T15:53:02.203Z,61.43
2023-01-17T15:55:33.851Z,61.12
2023-01-17T15:58:02.961Z,61.44
2023-01-17T16:00:38.374Z,61.25
2023-01-17T16:03:18.217Z,61.22
2023-01-17T16:05:47.009Z,61.47
2023-01-17T16:08:34.926Z,63.41
2023-01-17T16:11:06.432Z,63.49
2023-01-17T16:13:38.742Z,63.07
2023-01-17T16:16:12.973Z,64.28
2023-01-17T16:18:41.804Z,64.73
2023-01-17T16:21:20.593Z,63.94
2023-01-17T16:23:48.999Z,64.04
2023-01-17T16:26:17.654Z,64.99
2023-01-17T16:28:46.586Z,65.47
2023-01-17T16:31:14.742Z,64.77
2023-01-17T16:33:42.939Z,65.27
2023-01-17T16:36:14.730Z,65.01
2023-01-17T16:38:44.830Z,65.34
2023-01-17T16:41:12.943Z,65.48
2023-01-17T16:43:40.958Z,66.31
2023-01-17T16:46:11.879Z,65.61
2023-01-17T16:48:39.805Z,65.58
2023-01-17T16:51:08.455Z,65.83
2023-01-17T16:53:37.523Z,65.19
2023-01-17T16:56:12.256Z,65.37
2023-01-17T16:58:41.327Z,65.52
2023-01-17T17:01:17.663Z,65.11
2023-01-17T17:03:46.468Z,64.98
2023-01-17T17:06:15.135Z,64.98
2023-01-17T17:08:43.241Z,65.17
2023-01-17T17:11:15.092Z,65.11
2023-01-17T17:13:45.226Z,64.94
2023-01-17T17:16:18.064Z,64.55
2023-01-17T17:18:53.799Z,64.62
2023-01-17T17:21:22.680Z,64.96
2023-01-17T17:23:59.494Z,65.01
2023-01-17T17:26:31.562Z,65.15
2023-01-17T17:28:59.532Z,64.55
2023-01-17T17:31:28.159Z,64.41
2023-01-17T17:34:01.171Z,64.50
2023-01-17T17:36:30.241Z,64.54
2023-01-17T17:38:59.042Z,64.31
2023-01-17T17:41:29.617Z,64.44
2023-01-17T17:43:57.975Z,65.18
2023-01-17T17:46:27.321Z,66.02
2023-01-17T17:48:58.707Z,67.05
2023-01-17T17:51:26.567Z,66.51
2023-01-17T17:53:56.182Z,66.29
2023-01-17T17:56:24.264Z,66.87
2023-01-17T17:58:52.650Z,66.89
2023-01-17T18:01:24.382Z,67.19
2023-01-17T18:03:53.916Z,67.20
2023-01-17T18:06:22.184Z,67.40
2023-01-17T18:08:52.410Z,66.93
2023-01-17T18:11:26.798Z,67.55
2023-01-17T18:13:56.915Z,67.61
2023-01-17T18:16:28.022Z,67.63
2023-01-17T18:18:58.410Z,67.57
2023-01-17T18:21:29.334Z,67.74
2023-01-17T18:24:00.123Z,67.52
2023-01-17T18:26:33.560Z,67.82
2023-01-17T18:29:03.655Z,67.99
2023-01-17T18:31:32.099Z,68.18
2023-01-17T18:34:04.454Z,68.50
2023-01-17T18:36:34.873Z,68.88
2023-01-17T18:39:05.614Z,68.75
2023-01-17T18:41:34.817Z,69.09
2023-01-17T18:44:06.689Z,69.33
2023-01-17T18:46:35.790Z,69.53
2023-01-17T18:49:05.107Z,69.93
2023-01-17T18:51:34.610Z,70.14
2023-01-17T18:54:06.940Z,70.17
2023-01-17T18:56:35.838Z,69.92
2023-01-17T18:59:05.992Z,70.10
2023-01-17T19:01:36.233Z,70.20
2023-01-17T19:04:06.007Z,70.49
2023-01-17T19:06:37.000Z,70.44
2023-01-17T19:09:07.457Z,70.59
2023-01-17T19:11:36.752Z,71.18
2023-01-17T19:14:06.470Z,70.78
2023-01-17T19:16:39.397Z,71.08
2023-01-17T19:19:10.608Z,70.89
2023-01-17T19:21:38.718Z,70.59
2023-01-17T19:24:07.572Z,71.11
2023-01-17T19:26:35.640Z,71.24
2023-01-17T19:29:05.341Z,71.35
2023-01-17T19:31:39.751Z,71.36
2023-01-17T19:34:08.173Z,71.23
2023-01-17T19:36:38.369Z,71.50
2023-01-17T19:39:09.701Z,71.70
2023-01-17T19:41:42.030Z,71.55
2023-01-17T19:44:11.044Z,71.67
2023-01-17T19:46:39.539Z,71.80
2023-01-17T19:49:08.711Z,71.39
2023-01-17T19:51:37.283Z,71.48
2023-01-17T19:54:06.588Z,71.28
2023-01-17T19:56:34.977Z,71.69
2023-01-17T19:59:03.821Z,71.87
2023-01-17T20:01:33.924Z,72.15
2023-01-17T20:04:03.333Z,72.13
2023-01-17T20:06:32.541Z,72.41
2023-01-17T20:09:00.407Z,72.28
2023-01-17T20:11:28.984Z,72.44
2023-01-17T20:13:58.811Z,73.15
2023-01-17T20:16:29.072Z,72.93
2023-01-17T20:18:58.954Z,73.28
2023-01-17T20:21:29.014Z,73.40
2023-01-17T20:23:59.412Z,73.34
2023-01-17T20:26:35.998Z,73.40
2023-01-17T20:29:10.760Z,73.51
2023-01-17T20:31:40.916Z,73.62
2023-01-17T20:34:11.606Z,73.77
2023-01-17T20:36:41.895Z,73.64
2023-01-17T20:39:12.905Z,73.68
2023-01-17T20:41:42.930Z,73.73
2023-01-17T20:44:13.076Z,73.71
2023-01-17T20:46:42.263Z,73.76
2023-01-17T20:49:16.535Z,73.68
2023-01-17T20:51:46.063Z,74.20
2023-01-17T20:54:16.393Z,74.09
2023-01-17T20:56:47.514Z,73.86
2023-01-17T20:59:18.587Z,74.19
2023-01-17T21:01:47.194Z,74.68
2023-01-17T21:04:16.647Z,74.97
2023-01-17T21:06:44.695Z,75.54
2023-01-17T21:09:15.081Z,76.03
2023-01-17T21:11:43.649Z,76.13
2023-01-17T21:14:11.591Z,76.33
2023-01-17T21:16:39.979Z,76.51
2023-01-17T21:19:11.960Z,76.04
2023-01-17T21:21:40.507Z,76.31
2023-01-17T21:24:08.860Z,76.46
2023-01-17T21:26:38.980Z,77.00
2023-01-17T21:29:07.218Z,77.10
2023-01-17T21:31:36.789Z,77.24
2023-01-17T21:34:07.104Z,77.17
2023-01-17T21:36:37.544Z,76.70
2023-01-17T21:39:12.475Z,76.95
2023-01-17T21:41:41.718Z,76.29
2023-01-17T21:44:19.488Z,76.29
2023-01-17T21:46:48.598Z,76.65
2023-01-17T21:49:17.247Z,76.56
2023-01-17T21:51:55.080Z,76.17
2023-01-17T21:54:46.130Z,76.09
2023-01-17T21:57:36.132Z,76.31
2023-01-17T22:00:06.446Z,76.25
2023-01-17T22:02:40.279Z,76.11
2023-01-17T22:05:09.265Z,76.48
2023-01-17T22:07:38.953Z,77.02
2023-01-17T22:10:09.567Z,76.32
2023-01-17T22:12:37.677Z,76.59
2023-01-17T22:15:06.216Z,76.58
2023-01-17T22:17:34.433Z,76.79
2023-01-17T22:20:02.378Z,76.71
2023-01-17T22:22:32.561Z,76.82
2023-01-17T22:25:00.653Z,76.67
2023-01-17T22:27:29.030Z,76.42
2023-01-17T22:29:57.159Z,76.26
2023-01-17T22:32:25.165Z,76.18
2023-01-17T22:34:53.619Z,76.28
2023-01-17T22:37:21.717Z,76.37
2023-01-17T22:39:49.767Z,76.13
2023-01-17T22:42:17.964Z,75.82
2023-01-17T22:44:47.904Z,75.86
2023-01-17T22:47:15.847Z,75.81
2023-01-17T22:49:44.329Z,75.57
2023-01-17T22:52:12.265Z,75.84
2023-01-17T22:54:40.096Z,76.26
2023-01-17T22:57:08.542Z,75.92
2023-01-17T22:59:36.517Z,75.81
2023-01-17T23:02:04.996Z,75.83
2023-01-17T23:04:32.955Z,76.46
2023-01-17T23:07:01.145Z,76.80
2023-01-17T23:09:29.316Z,76.87
2023-01-17T23:11:57.252Z,76.99
2023-01-17T23:14:29.486Z,77.29
2023-01-17T23:17:21.807Z,78.85
2023-01-17T23:19:52.560Z,79.30
2023-01-17T23:22:21.863Z,79.15
2023-01-17T23:24:53.048Z,78.89
2023-01-17T23:27:45.828Z,79.12
2023-01-17T23:30:15.338Z,79.38
2023-01-17T23:32:49.337Z,80.90
2023-01-17T23:35:19.320Z,81.07
2023-01-17T23:38:06.495Z,81.62
2023-01-17T23:40:36.649Z,81.46
2023-01-17T23:43:24.094Z,81.39
2023-01-17T23:45:54.184Z,81.26
2023-01-17T23:48:25.714Z,81.47
2023-01-17T23:51:02.452Z,81.90
2023-01-17T23:53:30.279Z,82.21
2023-01-17T23:56:04.765Z,81.01
2023-01-17T23:58:34.246Z,81.30
